createdAt,value
2017-06-15T00:00:33.785Z,1014.15
2017-06-15T00:01:44.582Z,1014.17
2017-06-15T00:02:55.025Z,1014.15
2017-06-15T00:04:04.378Z,1014.14
2017-06-15T00:05:15.352Z,1014.12
2017-06-15T00:06:24.935Z,1014.11
2017-06-15T00:07:35.782Z,1014.14
2017-06-15T00:08:45.134Z,1014.11
2017-06-15T00:09:59.033Z,1014.13
2017-06-15T00:11:09.904Z,1014.14
2017-06-15T00:12:20.831Z,1014.19
2017-06-15T00:13:30.042Z,1014.17
2017-06-15T00:14:39.388Z,1014.17
2017-06-15T00:15:50.930Z,1014.16
2017-06-15T00:17:02.424Z,1014.17
2017-06-15T00:18:11.407Z,1014.13
2017-06-15T00:19:20.365Z,1014.14
2017-06-15T00:20:29.339Z,1014.12
2017-06-15T00:21:38.385Z,1014.12
2017-06-15T00:22:47.343Z,1014.13
2017-06-15T00:23:56.302Z,1014.13
2017-06-15T00:25:05.261Z,1014.1
2017-06-15T00:26:14.219Z,1014.08
2017-06-15T00:27:23.549Z,1014.08
2017-06-15T00:28:32.507Z,1014.09
2017-06-15T00:29:41.463Z,1014.09
2017-06-15T00:30:50.418Z,1014.11
2017-06-15T00:31:59.377Z,1014.1
2017-06-15T00:33:08.336Z,1014.11
2017-06-15T00:34:17.296Z,1014.12
2017-06-15T00:35:26.251Z,1014.16
2017-06-15T00:36:35.212Z,1014.08
2017-06-15T00:37:44.497Z,1014.09
2017-06-15T00:38:53.500Z,1014.1
2017-06-15T00:40:02.460Z,1014.12
2017-06-15T00:41:11.412Z,1014.13
2017-06-15T00:42:20.366Z,1014.12
2017-06-15T00:43:29.319Z,1014.11
2017-06-15T00:44:38.277Z,1014.16
2017-06-15T00:45:47.233Z,1014.11
2017-06-15T00:46:56.190Z,1014.12
2017-06-15T00:48:05.151Z,1014.13
2017-06-15T00:49:14.200Z,1014.13
2017-06-15T00:50:23.155Z,1014.06
2017-06-15T00:51:32.110Z,1014.03
2017-06-15T00:52:41.075Z,1014.01
2017-06-15T00:53:50.029Z,1014
2017-06-15T00:54:58.983Z,1013.99
2017-06-15T00:56:07.990Z,1013.98
2017-06-15T00:57:16.942Z,1013.98
2017-06-15T00:58:25.901Z,1013.98
2017-06-15T00:59:34.860Z,1013.99
2017-06-15T01:00:43.815Z,1014.01
2017-06-15T01:01:52.912Z,1014.03
2017-06-15T01:03:01.869Z,1014.03
2017-06-15T01:04:10.828Z,1014
2017-06-15T01:05:19.875Z,1014.01
2017-06-15T01:06:28.919Z,1014.01
2017-06-15T01:07:37.883Z,1014
2017-06-15T01:08:46.839Z,1013.98
2017-06-15T01:09:55.795Z,1014.01
2017-06-15T01:11:04.750Z,1014.01
2017-06-15T01:12:13.707Z,1013.98
2017-06-15T01:13:22.659Z,1013.98
2017-06-15T01:14:31.613Z,1013.98
2017-06-15T01:15:40.566Z,1013.96
2017-06-15T01:16:49.525Z,1013.93
2017-06-15T01:17:58.480Z,1013.97
2017-06-15T01:19:07.524Z,1013.9
2017-06-15T01:20:16.484Z,1013.96
2017-06-15T01:21:25.439Z,1013.93
2017-06-15T01:22:34.481Z,1013.92
2017-06-15T01:23:43.438Z,1013.92
2017-06-15T01:24:52.444Z,1013.93
2017-06-15T01:26:01.403Z,1013.92
2017-06-15T01:27:10.358Z,1013.9
2017-06-15T01:28:19.315Z,1013.93
2017-06-15T01:29:28.871Z,1013.89
2017-06-15T01:30:37.877Z,1013.93
2017-06-15T01:31:46.836Z,1013.92
2017-06-15T01:32:55.791Z,1013.91
2017-06-15T01:34:05.077Z,1013.94
2017-06-15T01:35:14.033Z,1013.95
2017-06-15T01:36:22.991Z,1013.95
2017-06-15T01:37:31.942Z,1013.95
2017-06-15T01:38:40.902Z,1013.99
2017-06-15T01:39:49.862Z,1014
2017-06-15T01:40:58.817Z,1014.01
2017-06-15T01:42:08.144Z,1014
2017-06-15T01:43:17.104Z,1013.97
2017-06-15T01:44:26.073Z,1014.01
2017-06-15T01:45:35.066Z,1014
2017-06-15T01:46:44.017Z,1013.98
2017-06-15T01:47:53.027Z,1013.96
2017-06-15T01:49:01.992Z,1013.97
2017-06-15T01:50:10.952Z,1013.98
2017-06-15T01:51:19.910Z,1013.98
2017-06-15T01:52:28.870Z,1013.98
2017-06-15T01:53:37.826Z,1013.96
2017-06-15T01:54:46.777Z,1013.93
2017-06-15T01:55:55.729Z,1013.98
2017-06-15T01:57:04.683Z,1013.94
2017-06-15T01:58:13.638Z,1013.92
2017-06-15T01:59:22.595Z,1013.95
2017-06-15T02:00:31.550Z,1013.99
2017-06-15T02:01:40.504Z,1013.99
2017-06-15T02:02:49.462Z,1013.97
2017-06-15T02:03:58.413Z,1014
2017-06-15T02:05:07.420Z,1014.03
2017-06-15T02:06:16.375Z,1014.03
2017-06-15T02:07:25.334Z,1014
2017-06-15T02:08:34.287Z,1014.02
2017-06-15T02:09:43.245Z,1014.03
2017-06-15T02:10:52.201Z,1014.02
2017-06-15T02:12:01.157Z,1014.04
2017-06-15T02:13:10.125Z,1014.06
2017-06-15T02:14:19.081Z,1014.05
2017-06-15T02:15:28.056Z,1014.07
2017-06-15T02:16:37.336Z,1014.03
2017-06-15T02:17:46.609Z,1014.03
2017-06-15T02:18:55.563Z,1014.04
2017-06-15T02:20:04.517Z,1014.04
2017-06-15T02:21:13.467Z,1014.01
2017-06-15T02:22:22.472Z,1014
2017-06-15T02:23:31.436Z,1013.96
2017-06-15T02:24:40.390Z,1013.96
2017-06-15T02:25:49.344Z,1013.96
2017-06-15T02:26:58.386Z,1013.97
2017-06-15T02:28:07.387Z,1013.94
2017-06-15T02:29:16.342Z,1013.94
2017-06-15T02:30:25.297Z,1013.98
2017-06-15T02:31:34.254Z,1013.95
2017-06-15T02:32:43.211Z,1013.98
2017-06-15T02:33:52.214Z,1013.96
2017-06-15T02:35:01.170Z,1014
2017-06-15T02:36:10.128Z,1013.97
2017-06-15T02:37:19.080Z,1013.96
2017-06-15T02:38:28.038Z,1013.99
2017-06-15T02:39:36.992Z,1013.99
2017-06-15T02:40:45.951Z,1013.97
2017-06-15T02:41:54.903Z,1013.98
2017-06-15T02:43:03.859Z,1013.98
2017-06-15T02:44:12.818Z,1013.96
2017-06-15T02:45:21.773Z,1013.98
2017-06-15T02:46:30.733Z,1014.01
2017-06-15T02:47:39.689Z,1014.01
2017-06-15T02:48:48.645Z,1014.04
2017-06-15T02:49:57.596Z,1014.05
2017-06-15T02:51:06.605Z,1014.09
2017-06-15T02:52:15.561Z,1014.11
2017-06-15T02:53:24.516Z,1014.07
2017-06-15T02:54:33.470Z,1014.07
2017-06-15T02:55:42.424Z,1014.04
2017-06-15T02:56:51.424Z,1014.06
2017-06-15T02:58:00.471Z,1014.05
2017-06-15T02:59:09.518Z,1014.04
2017-06-15T03:00:18.476Z,1014.07
2017-06-15T03:01:27.515Z,1014.04
2017-06-15T03:02:36.472Z,1014.08
2017-06-15T03:03:45.423Z,1014.07
2017-06-15T03:04:54.378Z,1014.07
2017-06-15T03:06:03.377Z,1014.07
2017-06-15T03:07:12.337Z,1014.02
2017-06-15T03:08:21.293Z,1014
2017-06-15T03:09:30.246Z,1014.06
2017-06-15T03:10:39.203Z,1014.07
2017-06-15T03:11:48.159Z,1014.04
2017-06-15T03:12:57.118Z,1014.07
2017-06-15T03:14:06.121Z,1014.03
2017-06-15T03:15:15.162Z,1014.08
2017-06-15T03:16:24.116Z,1014.06
2017-06-15T03:17:33.072Z,1014.08
2017-06-15T03:18:42.356Z,1014.09
2017-06-15T03:19:51.310Z,1014.1
2017-06-15T03:21:00.263Z,1014.06
2017-06-15T03:22:09.219Z,1014.09
2017-06-15T03:23:18.259Z,1014.09
2017-06-15T03:24:27.210Z,1014.07
2017-06-15T03:25:36.220Z,1014.07
2017-06-15T03:26:45.179Z,1014.08
2017-06-15T03:27:54.133Z,1014.11
2017-06-15T03:29:03.092Z,1014.13
2017-06-15T03:30:12.135Z,1014.13
2017-06-15T03:31:21.143Z,1014.12
2017-06-15T03:32:30.103Z,1014.11
2017-06-15T03:33:39.064Z,1014.14
2017-06-15T03:34:48.101Z,1014.11
2017-06-15T03:35:57.056Z,1014.13
2017-06-15T03:37:06.097Z,1014.09
2017-06-15T03:38:15.055Z,1014.11
2017-06-15T03:39:24.017Z,1014.09
2017-06-15T03:40:32.975Z,1014.05
2017-06-15T03:41:41.931Z,1014.02
2017-06-15T03:42:50.884Z,1013.99
2017-06-15T03:43:59.926Z,1013.99
2017-06-15T03:45:08.882Z,1013.97
2017-06-15T03:46:17.837Z,1013.95
2017-06-15T03:47:26.793Z,1013.95
2017-06-15T03:48:35.793Z,1013.95
2017-06-15T03:49:44.746Z,1013.95
2017-06-15T03:50:53.706Z,1013.93
2017-06-15T03:52:02.659Z,1013.92
2017-06-15T03:53:11.701Z,1013.91
2017-06-15T03:54:20.703Z,1013.92
2017-06-15T03:55:29.654Z,1013.9
2017-06-15T03:56:38.937Z,1013.95
2017-06-15T03:57:47.893Z,1013.92
2017-06-15T03:58:57.171Z,1013.95
2017-06-15T04:00:06.131Z,1013.96
2017-06-15T04:01:15.090Z,1013.97
2017-06-15T04:02:24.130Z,1013.98
2017-06-15T04:03:33.089Z,1013.94
2017-06-15T04:04:42.048Z,1013.94
2017-06-15T04:05:51.001Z,1013.95
2017-06-15T04:06:59.956Z,1013.93
2017-06-15T04:08:08.907Z,1013.96
2017-06-15T04:09:17.858Z,1013.99
2017-06-15T04:10:27.139Z,1014
2017-06-15T04:11:36.096Z,1014.01
2017-06-15T04:12:45.056Z,1014.03
2017-06-15T04:13:54.020Z,1014.04
2017-06-15T04:15:03.062Z,1014
2017-06-15T04:16:12.021Z,1014
2017-06-15T04:17:20.977Z,1014.02
2017-06-15T04:18:30.019Z,1014.01
2017-06-15T04:19:38.974Z,1014.05
2017-06-15T04:20:48.013Z,1014.05
2017-06-15T04:21:56.970Z,1014.06
2017-06-15T04:23:05.975Z,1014.08
2017-06-15T04:24:14.929Z,1014.05
2017-06-15T04:25:23.912Z,1014.07
2017-06-15T04:26:32.870Z,1014.05
2017-06-15T04:27:41.826Z,1014.05
2017-06-15T04:28:50.780Z,1014.04
2017-06-15T04:29:59.735Z,1014.05
2017-06-15T04:31:08.695Z,1014.11
2017-06-15T04:32:17.649Z,1014.12
2017-06-15T04:33:26.606Z,1014.13
2017-06-15T04:34:35.701Z,1014.14
2017-06-15T04:35:44.660Z,1014.1
2017-06-15T04:36:53.618Z,1014.1
2017-06-15T04:38:02.583Z,1014.12
2017-06-15T04:39:11.541Z,1014.06
2017-06-15T04:40:20.497Z,1014.01
2017-06-15T04:41:29.459Z,1014.05
2017-06-15T04:42:38.414Z,1014.01
2017-06-15T04:43:47.368Z,1014.08
2017-06-15T04:44:56.327Z,1014.05
2017-06-15T04:46:05.334Z,1014.11
2017-06-15T04:47:14.298Z,1014.08
2017-06-15T04:48:23.255Z,1014.05
2017-06-15T04:49:32.535Z,1014.09
2017-06-15T04:50:41.494Z,1014.06
2017-06-15T04:51:50.504Z,1014.08
2017-06-15T04:52:59.459Z,1014.04
2017-06-15T04:54:08.416Z,1014.09
2017-06-15T04:55:17.371Z,1014.08
2017-06-15T04:56:26.414Z,1014.09
2017-06-15T04:57:35.373Z,1014.07
2017-06-15T04:58:44.324Z,1014.1
2017-06-15T04:59:53.295Z,1014.09
2017-06-15T05:01:02.248Z,1014.12
2017-06-15T05:02:11.212Z,1014.1
2017-06-15T05:03:20.312Z,1014.09
2017-06-15T05:04:29.273Z,1014.06
2017-06-15T05:05:38.228Z,1014.03
2017-06-15T05:06:47.182Z,1014.04
2017-06-15T05:07:56.135Z,1014
2017-06-15T05:09:05.470Z,1014.02
2017-06-15T05:10:14.427Z,1014.02
2017-06-15T05:11:23.383Z,1014.05
2017-06-15T05:12:32.342Z,1014.04
2017-06-15T05:13:41.382Z,1013.97
2017-06-15T05:14:50.340Z,1014.02
2017-06-15T05:15:59.292Z,1013.99
2017-06-15T05:17:08.244Z,1013.99
2017-06-15T05:18:17.200Z,1013.97
2017-06-15T05:19:26.163Z,1013.97
2017-06-15T05:20:35.166Z,1013.94
2017-06-15T05:21:44.124Z,1013.92
2017-06-15T05:22:53.081Z,1013.97
2017-06-15T05:24:02.039Z,1013.98
2017-06-15T05:25:10.995Z,1013.97
2017-06-15T05:26:20.042Z,1013.97
2017-06-15T05:27:29.001Z,1013.96
2017-06-15T05:28:37.960Z,1013.95
2017-06-15T05:29:46.921Z,1013.95
2017-06-15T05:30:55.881Z,1013.94
2017-06-15T05:32:04.840Z,1013.94
2017-06-15T05:33:13.801Z,1013.97
2017-06-15T05:34:22.763Z,1013.89
2017-06-15T05:35:31.721Z,1013.9
2017-06-15T05:36:40.677Z,1013.94
2017-06-15T05:37:49.635Z,1013.94
2017-06-15T05:38:58.597Z,1013.93
2017-06-15T05:40:07.561Z,1013.94
2017-06-15T05:41:16.521Z,1013.92
2017-06-15T05:42:25.475Z,1013.93
2017-06-15T05:43:34.493Z,1013.93
2017-06-15T05:44:43.452Z,1013.91
2017-06-15T05:45:52.407Z,1013.93
2017-06-15T05:47:01.365Z,1013.97
2017-06-15T05:48:10.325Z,1013.97
2017-06-15T05:49:19.333Z,1013.96
2017-06-15T05:50:28.633Z,1013.96
2017-06-15T05:51:37.591Z,1013.97
2017-06-15T05:52:46.551Z,1013.99
2017-06-15T05:53:55.510Z,1013.99
2017-06-15T05:55:04.704Z,1013.96
2017-06-15T05:56:13.662Z,1013.94
2017-06-15T05:57:22.626Z,1014.01
2017-06-15T05:58:31.589Z,1014.03
2017-06-15T05:59:40.727Z,1013.97
2017-06-15T06:00:49.704Z,1013.99
2017-06-15T06:01:58.747Z,1014
2017-06-15T06:03:08.456Z,1014.05
2017-06-15T06:04:17.501Z,1014.05
2017-06-15T06:05:26.461Z,1014.05
2017-06-15T06:06:35.514Z,1014.03
2017-06-15T06:07:44.633Z,1014.02
2017-06-15T06:08:53.618Z,1013.97
2017-06-15T06:10:02.656Z,1013.98
2017-06-15T06:11:12.062Z,1013.95
2017-06-15T06:12:21.115Z,1013.92
2017-06-15T06:13:30.079Z,1013.94
2017-06-15T06:14:39.034Z,1013.88
2017-06-15T06:15:47.987Z,1013.92
2017-06-15T06:16:56.946Z,1013.92
2017-06-15T06:18:05.954Z,1013.84
2017-06-15T06:19:14.913Z,1013.87
2017-06-15T06:20:23.873Z,1013.9
2017-06-15T06:21:32.877Z,1013.9
2017-06-15T06:22:41.969Z,1013.91
2017-06-15T06:23:51.053Z,1013.88
2017-06-15T06:25:00.008Z,1013.91
2017-06-15T06:26:09.077Z,1013.9
2017-06-15T06:27:18.073Z,1013.91
2017-06-15T06:28:27.494Z,1013.89
2017-06-15T06:29:36.832Z,1013.89
2017-06-15T06:30:45.792Z,1013.85
2017-06-15T06:31:54.774Z,1013.86
2017-06-15T06:33:03.843Z,1013.86
2017-06-15T06:34:13.372Z,1013.86
2017-06-15T06:35:22.538Z,1013.82
2017-06-15T06:36:31.538Z,1013.84
2017-06-15T06:37:40.625Z,1013.86
2017-06-15T06:38:49.617Z,1013.86
2017-06-15T06:39:58.657Z,1013.84
2017-06-15T06:41:07.613Z,1013.83
2017-06-15T06:42:16.568Z,1013.83
2017-06-15T06:43:25.522Z,1013.83
2017-06-15T06:44:34.546Z,1013.83
2017-06-15T06:45:43.521Z,1013.88
2017-06-15T06:46:52.584Z,1013.89
2017-06-15T06:48:01.636Z,1013.93
2017-06-15T06:49:10.741Z,1013.92
2017-06-15T06:50:19.836Z,1013.86
2017-06-15T06:51:28.898Z,1013.81
2017-06-15T06:52:38.099Z,1013.8
2017-06-15T06:53:47.119Z,1013.82
2017-06-15T06:54:56.150Z,1013.81
2017-06-15T06:56:05.253Z,1013.82
2017-06-15T06:57:14.332Z,1013.87
2017-06-15T06:58:23.382Z,1013.87
2017-06-15T06:59:32.381Z,1013.9
2017-06-15T07:00:41.337Z,1013.91
2017-06-15T07:01:50.293Z,1013.85
2017-06-15T07:02:59.509Z,1013.88
2017-06-15T07:04:08.619Z,1013.86
2017-06-15T07:05:17.658Z,1013.8
2017-06-15T07:06:26.618Z,1013.83
2017-06-15T07:07:35.816Z,1013.8
2017-06-15T07:08:44.853Z,1013.81
2017-06-15T07:09:54.122Z,1013.85
2017-06-15T07:11:03.363Z,1013.85
2017-06-15T07:12:12.411Z,1013.85
2017-06-15T07:13:21.468Z,1013.87
2017-06-15T07:14:30.511Z,1013.82
2017-06-15T07:15:39.473Z,1013.81
2017-06-15T07:16:48.756Z,1013.79
2017-06-15T07:17:57.716Z,1013.81
2017-06-15T07:19:06.675Z,1013.79
2017-06-15T07:20:15.631Z,1013.76
2017-06-15T07:21:24.588Z,1013.77
2017-06-15T07:22:33.919Z,1013.78
2017-06-15T07:23:45.688Z,1013.7
2017-06-15T07:24:54.646Z,1013.76
2017-06-15T07:26:03.942Z,1013.72
2017-06-15T07:27:12.897Z,1013.74
2017-06-15T07:28:21.865Z,1013.74
2017-06-15T07:29:30.825Z,1013.74
2017-06-15T07:30:39.787Z,1013.78
2017-06-15T07:31:48.837Z,1013.74
2017-06-15T07:32:57.844Z,1013.78
2017-06-15T07:34:06.807Z,1013.85
2017-06-15T07:35:15.768Z,1013.82
2017-06-15T07:36:24.733Z,1013.83
2017-06-15T07:37:33.688Z,1013.83
2017-06-15T07:38:42.646Z,1013.88
2017-06-15T07:39:51.604Z,1013.84
2017-06-15T07:41:00.564Z,1013.87
2017-06-15T07:42:09.525Z,1013.86
2017-06-15T07:43:18.479Z,1013.88
2017-06-15T07:44:27.449Z,1013.89
2017-06-15T07:45:36.408Z,1013.9
2017-06-15T07:46:45.371Z,1013.88
2017-06-15T07:47:54.329Z,1013.88
2017-06-15T07:49:03.291Z,1013.85
2017-06-15T07:50:12.253Z,1013.83
2017-06-15T07:51:21.211Z,1013.83
2017-06-15T07:52:30.174Z,1013.81
2017-06-15T07:53:39.149Z,1013.81
2017-06-15T07:54:48.112Z,1013.81
2017-06-15T07:55:57.076Z,1013.82
2017-06-15T07:57:06.040Z,1013.85
2017-06-15T07:58:15.002Z,1013.86
2017-06-15T07:59:24.285Z,1013.84
2017-06-15T08:00:33.247Z,1013.84
2017-06-15T08:01:42.212Z,1013.86
2017-06-15T08:02:51.173Z,1013.9
2017-06-15T08:04:00.137Z,1013.85
2017-06-15T08:05:09.099Z,1013.84
2017-06-15T08:06:18.145Z,1013.82
2017-06-15T08:07:27.247Z,1013.87
2017-06-15T08:08:36.208Z,1013.82
2017-06-15T08:09:45.168Z,1013.89
2017-06-15T08:10:54.127Z,1013.87
2017-06-15T08:12:03.173Z,1013.81
2017-06-15T08:13:12.145Z,1013.78
2017-06-15T08:14:21.105Z,1013.8
2017-06-15T08:15:30.068Z,1013.8
2017-06-15T08:16:39.031Z,1013.79
2017-06-15T08:17:47.989Z,1013.83
2017-06-15T08:18:56.988Z,1013.84
2017-06-15T08:20:06.036Z,1013.8
2017-06-15T08:21:15.323Z,1013.76
2017-06-15T08:22:24.288Z,1013.79
2017-06-15T08:23:33.249Z,1013.77
2017-06-15T08:24:42.209Z,1013.76
2017-06-15T08:25:51.169Z,1013.75
2017-06-15T08:27:00.133Z,1013.74
2017-06-15T08:28:09.091Z,1013.7
2017-06-15T08:29:18.050Z,1013.7
2017-06-15T08:30:27.057Z,1013.71
2017-06-15T08:31:36.019Z,1013.76
2017-06-15T08:32:45.008Z,1013.78
2017-06-15T08:33:53.976Z,1013.75
2017-06-15T08:35:02.959Z,1013.71
2017-06-15T08:36:11.998Z,1013.73
2017-06-15T08:37:20.980Z,1013.78
2017-06-15T08:38:29.968Z,1013.75
2017-06-15T08:39:38.949Z,1013.75
2017-06-15T08:40:48.259Z,1013.72
2017-06-15T08:41:57.310Z,1013.73
2017-06-15T08:43:06.634Z,1013.7
2017-06-15T08:44:15.602Z,1013.69
2017-06-15T08:45:24.567Z,1013.69
2017-06-15T08:46:33.533Z,1013.67
2017-06-15T08:47:42.522Z,1013.66
2017-06-15T08:48:51.503Z,1013.69
2017-06-15T08:50:00.492Z,1013.64
2017-06-15T08:51:09.483Z,1013.69
2017-06-15T08:52:18.468Z,1013.68
2017-06-15T08:53:27.544Z,1013.65
2017-06-15T08:54:36.527Z,1013.65
2017-06-15T08:55:45.510Z,1013.64
2017-06-15T08:56:54.501Z,1013.64
2017-06-15T08:58:03.477Z,1013.6
2017-06-15T08:59:12.551Z,1013.61
2017-06-15T09:00:21.534Z,1013.66
2017-06-15T09:01:30.515Z,1013.62
2017-06-15T09:02:39.500Z,1013.65
2017-06-15T09:03:48.490Z,1013.62
2017-06-15T09:04:57.558Z,1013.6
2017-06-15T09:06:06.535Z,1013.59
2017-06-15T09:07:15.515Z,1013.54
2017-06-15T09:08:24.496Z,1013.58
2017-06-15T09:09:33.482Z,1013.55
2017-06-15T09:10:42.620Z,1013.53
2017-06-15T09:11:51.600Z,1013.5
2017-06-15T09:13:00.586Z,1013.45
2017-06-15T09:14:09.575Z,1013.46
2017-06-15T09:15:18.556Z,1013.46
2017-06-15T09:16:27.621Z,1013.47
2017-06-15T09:17:36.612Z,1013.44
2017-06-15T09:18:45.597Z,1013.45
2017-06-15T09:19:54.582Z,1013.42
2017-06-15T09:21:03.595Z,1013.39
2017-06-15T09:22:12.609Z,1013.42
2017-06-15T09:23:21.593Z,1013.4
2017-06-15T09:24:30.577Z,1013.44
2017-06-15T09:25:39.558Z,1013.39
2017-06-15T09:26:48.544Z,1013.44
2017-06-15T09:27:57.578Z,1013.44
2017-06-15T09:29:06.643Z,1013.41
2017-06-15T09:30:15.621Z,1013.41
2017-06-15T09:31:24.583Z,1013.38
2017-06-15T09:32:33.547Z,1013.38
2017-06-15T09:33:42.509Z,1013.41
2017-06-15T09:34:51.466Z,1013.36
2017-06-15T09:36:00.458Z,1013.34
2017-06-15T09:37:09.461Z,1013.34
2017-06-15T09:38:18.421Z,1013.32
2017-06-15T09:39:27.441Z,1013.32
2017-06-15T09:40:36.410Z,1013.34
2017-06-15T09:41:45.394Z,1013.29
2017-06-15T09:42:55.223Z,1013.23
2017-06-15T09:44:04.187Z,1013.22
2017-06-15T09:45:13.240Z,1013.27
2017-06-15T09:46:22.205Z,1013.26
2017-06-15T09:47:31.167Z,1013.24
2017-06-15T09:48:40.465Z,1013.28
2017-06-15T09:49:49.430Z,1013.28
2017-06-15T09:50:58.441Z,1013.18
2017-06-15T09:52:07.407Z,1013.21
2017-06-15T09:53:16.461Z,1013.19
2017-06-15T09:54:25.420Z,1013.22
2017-06-15T09:55:34.704Z,1013.21
2017-06-15T09:56:43.664Z,1013.18
2017-06-15T09:57:52.957Z,1013.19
2017-06-15T09:59:01.918Z,1013.16
2017-06-15T10:00:10.883Z,1013.13
2017-06-15T10:01:19.848Z,1013.19
2017-06-15T10:02:28.862Z,1013.16
2017-06-15T10:03:37.857Z,1013.11
2017-06-15T10:04:46.817Z,1013.12
2017-06-15T10:05:55.948Z,1013.05
2017-06-15T10:07:04.908Z,1013.1
2017-06-15T10:08:14.010Z,1013.06
2017-06-15T10:09:22.975Z,1013.02
2017-06-15T10:10:32.255Z,1013.02
2017-06-15T10:11:41.215Z,1013.02
2017-06-15T10:12:50.183Z,1012.99
2017-06-15T10:13:59.201Z,1013.04
2017-06-15T10:15:08.166Z,1013.01
2017-06-15T10:16:17.132Z,1013
2017-06-15T10:17:26.098Z,1012.97
2017-06-15T10:18:35.062Z,1012.96
2017-06-15T10:19:44.077Z,1012.94
2017-06-15T10:20:53.040Z,1012.93
2017-06-15T10:22:02.000Z,1012.91
2017-06-15T10:23:10.963Z,1012.94
2017-06-15T10:24:19.919Z,1012.94
2017-06-15T10:25:28.877Z,1012.95
2017-06-15T10:26:37.835Z,1013
2017-06-15T10:27:46.801Z,1012.99
2017-06-15T10:28:55.759Z,1012.95
2017-06-15T10:30:04.723Z,1012.93
2017-06-15T10:31:13.685Z,1012.93
2017-06-15T10:32:22.649Z,1012.89
2017-06-15T10:33:31.607Z,1012.91
2017-06-15T10:34:40.567Z,1012.93
2017-06-15T10:35:49.528Z,1012.87
2017-06-15T10:36:58.536Z,1012.82
2017-06-15T10:38:07.908Z,1012.81
2017-06-15T10:39:16.868Z,1012.82
2017-06-15T10:40:26.148Z,1012.81
2017-06-15T10:41:35.107Z,1012.75
2017-06-15T10:42:44.714Z,1012.74
2017-06-15T10:43:53.717Z,1012.77
2017-06-15T10:45:02.680Z,1012.78
2017-06-15T10:46:11.643Z,1012.83
2017-06-15T10:47:20.603Z,1012.78
2017-06-15T10:48:29.615Z,1012.76
2017-06-15T10:49:38.581Z,1012.72
2017-06-15T10:50:47.540Z,1012.72
2017-06-15T10:51:56.596Z,1012.71
2017-06-15T10:53:05.560Z,1012.69
2017-06-15T10:54:14.881Z,1012.71
2017-06-15T10:55:24.097Z,1012.78
2017-06-15T10:56:34.043Z,1012.69
2017-06-15T10:57:43.005Z,1012.67
2017-06-15T10:58:51.967Z,1012.67
2017-06-15T11:00:00.929Z,1012.68
2017-06-15T11:01:09.979Z,1012.62
2017-06-15T11:02:18.939Z,1012.61
2017-06-15T11:03:27.900Z,1012.62
2017-06-15T11:04:36.861Z,1012.63
2017-06-15T11:05:45.825Z,1012.61
2017-06-15T11:06:55.124Z,1012.53
2017-06-15T11:08:04.092Z,1012.57
2017-06-15T11:09:13.054Z,1012.51
2017-06-15T11:10:22.107Z,1012.53
2017-06-15T11:11:31.205Z,1012.48
2017-06-15T11:12:40.163Z,1012.5
2017-06-15T11:13:49.122Z,1012.49
2017-06-15T11:14:58.080Z,1012.49
2017-06-15T11:16:07.040Z,1012.47
2017-06-15T11:17:16.001Z,1012.56
2017-06-15T11:18:24.963Z,1012.51
2017-06-15T11:19:33.917Z,1012.42
2017-06-15T11:20:42.881Z,1012.36
2017-06-15T11:21:51.845Z,1012.36
2017-06-15T11:23:00.811Z,1012.34
2017-06-15T11:24:09.860Z,1012.35
2017-06-15T11:25:18.829Z,1012.36
2017-06-15T11:26:27.792Z,1012.29
2017-06-15T11:27:36.849Z,1012.3
2017-06-15T11:28:45.811Z,1012.3
2017-06-15T11:29:55.104Z,1012.25
2017-06-15T11:31:04.093Z,1012.29
2017-06-15T11:32:13.053Z,1012.29
2017-06-15T11:33:22.019Z,1012.29
2017-06-15T11:34:31.033Z,1012.3
2017-06-15T11:35:39.991Z,1012.2
2017-06-15T11:36:49.048Z,1012.25
2017-06-15T11:37:58.006Z,1012.22
2017-06-15T11:39:06.967Z,1012.23
2017-06-15T11:40:15.934Z,1012.22
2017-06-15T11:41:24.995Z,1012.21
2017-06-15T11:42:34.042Z,1012.24
2017-06-15T11:43:43.006Z,1012.25
2017-06-15T11:44:52.059Z,1012.21
2017-06-15T11:46:01.197Z,1012.19
2017-06-15T11:47:10.157Z,1012.17
2017-06-15T11:48:19.112Z,1012.13
2017-06-15T11:49:28.075Z,1012.12
2017-06-15T11:50:37.037Z,1012.15
2017-06-15T11:51:46.003Z,1012.08
2017-06-15T11:52:54.967Z,1012.16
2017-06-15T11:54:03.931Z,1012.1
2017-06-15T11:55:12.896Z,1012.09
2017-06-15T11:56:21.854Z,1012.03
2017-06-15T11:57:30.867Z,1012.06
2017-06-15T11:58:39.919Z,1012.02
2017-06-15T11:59:49.241Z,1012
2017-06-15T12:00:59.149Z,1012.04
2017-06-15T12:02:08.114Z,1011.99
2017-06-15T12:03:17.077Z,1012.01
2017-06-15T12:04:26.038Z,1011.94
2017-06-15T12:05:35.028Z,1012
2017-06-15T12:06:44.117Z,1012.05
2017-06-15T12:07:53.083Z,1011.99
2017-06-15T12:09:02.052Z,1012.03
2017-06-15T12:10:11.035Z,1011.94
2017-06-15T12:11:19.998Z,1011.96
2017-06-15T12:12:29.291Z,1011.97
2017-06-15T12:13:38.286Z,1011.95
2017-06-15T12:14:47.310Z,1011.92
2017-06-15T12:15:56.360Z,1011.89
2017-06-15T12:17:05.320Z,1011.91
2017-06-15T12:18:14.365Z,1011.83
2017-06-15T12:19:23.335Z,1011.83
2017-06-15T12:20:33.228Z,1011.79
2017-06-15T12:21:54.801Z,1011.82
2017-06-15T12:23:16.798Z,1011.78
2017-06-15T12:24:25.811Z,1011.83
2017-06-15T12:25:35.137Z,1011.82
2017-06-15T12:26:44.231Z,1011.76
2017-06-15T12:27:53.555Z,1011.72
2017-06-15T12:29:02.744Z,1011.73
2017-06-15T12:30:12.125Z,1011.71
2017-06-15T12:31:21.261Z,1011.67
2017-06-15T12:32:30.459Z,1011.7
2017-06-15T12:33:39.553Z,1011.62
2017-06-15T12:34:48.519Z,1011.63
2017-06-15T12:35:57.574Z,1011.54
2017-06-15T12:37:06.620Z,1011.53
2017-06-15T12:38:15.667Z,1011.53
2017-06-15T12:39:24.674Z,1011.48
2017-06-15T12:40:33.648Z,1011.48
2017-06-15T12:41:42.609Z,1011.51
2017-06-15T12:42:51.662Z,1011.47
2017-06-15T12:44:00.690Z,1011.43
2017-06-15T12:45:09.782Z,1011.47
2017-06-15T12:46:18.753Z,1011.43
2017-06-15T12:47:27.730Z,1011.41
2017-06-15T12:48:36.891Z,1011.41
2017-06-15T12:49:45.950Z,1011.42
2017-06-15T12:50:55.030Z,1011.4
2017-06-15T12:52:04.000Z,1011.36
2017-06-15T12:53:13.583Z,1011.3
2017-06-15T12:54:22.541Z,1011.27
2017-06-15T12:55:31.540Z,1011.29
2017-06-15T12:56:40.589Z,1011.23
2017-06-15T12:57:49.617Z,1011.27
2017-06-15T12:58:58.582Z,1011.24
2017-06-15T13:00:07.546Z,1011.25
2017-06-15T13:01:16.509Z,1011.19
2017-06-15T13:02:25.474Z,1011.13
2017-06-15T13:03:34.434Z,1011.12
2017-06-15T13:04:43.486Z,1011.02
2017-06-15T13:05:52.861Z,1011.11
2017-06-15T13:07:01.823Z,1011.09
2017-06-15T13:08:11.036Z,1011.08
2017-06-15T13:09:20.001Z,1011.11
2017-06-15T13:10:29.116Z,1011.07
2017-06-15T13:11:38.075Z,1011.05
2017-06-15T13:12:47.034Z,1011.07
2017-06-15T13:13:56.012Z,1011.07
2017-06-15T13:15:04.983Z,1011.07
2017-06-15T13:16:13.973Z,1011.06
2017-06-15T13:17:22.938Z,1011.04
2017-06-15T13:18:31.976Z,1011.02
2017-06-15T13:19:40.973Z,1010.94
2017-06-15T13:20:50.260Z,1010.94
2017-06-15T13:21:59.387Z,1010.97
2017-06-15T13:23:08.452Z,1010.98
2017-06-15T13:24:17.765Z,1010.94
2017-06-15T13:25:26.835Z,1010.91
2017-06-15T13:26:36.381Z,1010.89
2017-06-15T13:27:45.345Z,1010.93
2017-06-15T13:28:54.355Z,1010.88
2017-06-15T13:30:03.440Z,1010.85
2017-06-15T13:31:12.582Z,1010.84
2017-06-15T13:32:21.800Z,1010.81
2017-06-15T13:33:30.851Z,1010.77
2017-06-15T13:34:39.878Z,1010.75
2017-06-15T13:35:48.991Z,1010.75
2017-06-15T13:36:57.985Z,1010.73
2017-06-15T13:38:07.032Z,1010.77
2017-06-15T13:39:16.118Z,1010.74
2017-06-15T13:40:25.153Z,1010.71
2017-06-15T13:41:34.129Z,1010.7
2017-06-15T13:42:43.093Z,1010.7
2017-06-15T13:43:52.115Z,1010.67
2017-06-15T13:45:01.156Z,1010.61
2017-06-15T13:46:10.185Z,1010.59
2017-06-15T13:47:19.150Z,1010.61
2017-06-15T13:48:28.246Z,1010.61
2017-06-15T13:49:37.263Z,1010.6
2017-06-15T13:50:46.491Z,1010.59
2017-06-15T13:51:55.723Z,1010.56
2017-06-15T13:53:05.051Z,1010.52
2017-06-15T13:54:14.098Z,1010.53
2017-06-15T13:55:23.060Z,1010.49
2017-06-15T13:56:32.020Z,1010.55
2017-06-15T13:57:41.097Z,1010.49
2017-06-15T13:58:50.073Z,1010.49